Terminal Aerodrome Forecast
Issued by NWS

Home | Current Version | Previous Version | Text Only | Print | Product List | Glossary On
Versions: 1 2 3 4 5 6 7 8 9 10 11 12 13 14 15 16 17
000
FTUS41 KPBZ 260520
TAFHLG
TAF
KHLG 260520Z 2606/2706 01004KT P6SM OVC100
     FM261100 VRB03KT P6SM BKN250
     FM261700 35010G18KT P6SM SCT050
     FM270000 34005KT P6SM SKC=

USA.gov is the U.S. government's official web portal to all federal, state and local government web resources and services.